Time;durP1;ratioP1;P1;durP2;ratioP2;P2;SDS_P1;SDS_P2;PMS_P1;PMS_P2;Temp;Humidity;BMP_temperature;BMP_pressure;BME280_temperature;BME280_humidity;BME280_pressure;Samples;Min_cycle;Max_cycle;Signal;HPM_P1;HPM_P2
2022/08/28 00:01:28;;;;;;;;;;;15.20;99.90;;;;;;5071515;28;19909;-76
2022/08/28 00:03:54;;;;;;;;;;;15.10;99.90;;;;;;5072604;28;19966;-76
2022/08/28 00:06:20;;;;;;;;;;;15.00;99.90;;;;;;5071632;28;20000;-76
2022/08/28 00:08:45;;;;;;;;;;;15.00;99.90;;;;;;5071670;28;20002;-76
2022/08/28 00:11:11;;;;;;;;;;;14.90;99.90;;;;;;5071640;28;19924;-76
2022/08/28 00:13:36;;;;;;;;;;;15.00;99.90;;;;;;5071585;28;20129;-76
2022/08/28 00:16:02;;;;;;;;;;;15.10;99.90;;;;;;5065465;28;19909;-76
2022/08/28 00:18:28;;;;;;;;;;;15.10;99.90;;;;;;5070366;28;19909;-76
2022/08/28 00:20:54;;;;;;;;;;;15.10;99.90;;;;;;5070166;28;19908;-76
2022/08/28 00:23:20;;;;;;;;;;;15.20;99.90;;;;;;5071385;28;19924;-76
2022/08/28 00:25:46;;;;;;;;;;;15.30;99.90;;;;;;5071604;28;19961;-76
2022/08/28 00:28:12;;;;;;;;;;;15.40;99.90;;;;;;5070746;28;20003;-76
2022/08/28 00:30:42;;;;;;;;;;;15.50;99.90;;;;;;5071715;28;19950;-75
2022/08/28 00:33:18;;;;;;;;;;;15.50;99.90;;;;;;5069999;28;19908;-76
2022/08/28 00:35:44;;;;;;;;;;;15.50;99.90;;;;;;5065172;28;19909;-76
2022/08/28 00:38:10;;;;;;;;;;;15.60;99.90;;;;;;5071454;28;20407;-76
2022/08/28 00:40:36;;;;;;;;;;;15.60;99.90;;;;;;5070140;28;19909;-76
2022/08/28 00:43:04;;;;;;;;;;;15.60;99.90;;;;;;5071256;28;19919;-76
2022/08/28 00:45:30;;;;;;;;;;;15.60;99.90;;;;;;5071436;28;19944;-76
2022/08/28 00:47:55;;;;;;;;;;;15.60;99.90;;;;;;5071449;28;19959;-76
2022/08/28 00:50:22;;;;;;;;;;;15.60;99.90;;;;;;5071374;28;20400;-76
2022/08/28 00:52:49;;;;;;;;;;;15.60;99.90;;;;;;5071240;28;19916;-76
2022/08/28 00:55:19;;;;;;;;;;;15.70;99.90;;;;;;5071240;28;19947;-76
2022/08/28 00:57:49;;;;;;;;;;;15.70;99.90;;;;;;5070240;28;19968;-76
2022/08/28 01:00:23;;;;;;;;;;;15.80;99.90;;;;;;5064981;28;19908;-76
2022/08/28 01:02:50;;;;;;;;;;;15.80;99.90;;;;;;5065749;28;20016;-76
2022/08/28 01:05:16;;;;;;;;;;;15.80;99.90;;;;;;5069972;28;20266;-76
2022/08/28 01:07:41;;;;;;;;;;;15.80;99.90;;;;;;5071041;28;19908;-76
2022/08/28 01:10:08;;;;;;;;;;;15.70;99.90;;;;;;5071173;28;20411;-76
2022/08/28 01:12:34;;;;;;;;;;;15.80;99.90;;;;;;5071460;28;20278;-76
2022/08/28 01:15:02;;;;;;;;;;;15.80;99.90;;;;;;5069627;28;19909;-76
2022/08/28 01:17:30;;;;;;;;;;;15.80;99.90;;;;;;5056493;28;19908;-76
2022/08/28 01:19:57;;;;;;;;;;;15.80;99.90;;;;;;5071043;28;20002;-76
2022/08/28 01:22:23;;;;;;;;;;;15.90;99.90;;;;;;5070882;28;20331;-76
2022/08/28 01:24:51;;;;;;;;;;;15.90;99.90;;;;;;5070734;28;19950;-76
2022/08/28 01:27:17;;;;;;;;;;;15.90;99.90;;;;;;5050381;28;20369;-76
2022/08/28 01:29:42;;;;;;;;;;;16.00;99.90;;;;;;5064378;28;19908;-76
2022/08/28 01:32:08;;;;;;;;;;;16.00;99.90;;;;;;5071201;28;20009;-76
2022/08/28 01:34:34;;;;;;;;;;;16.00;99.90;;;;;;5074213;28;20362;-76
2022/08/28 01:36:59;;;;;;;;;;;16.00;99.90;;;;;;5070836;28;19931;-76
2022/08/28 01:39:25;;;;;;;;;;;16.00;99.90;;;;;;5073013;28;19909;-76
2022/08/28 01:41:52;;;;;;;;;;;16.00;99.90;;;;;;5074500;28;19912;-76
2022/08/28 01:44:22;;;;;;;;;;;16.00;99.90;;;;;;5072907;28;19913;-76
2022/08/28 01:46:49;;;;;;;;;;;16.00;99.90;;;;;;5074873;28;19912;-76
2022/08/28 01:49:14;;;;;;;;;;;15.90;99.90;;;;;;5074401;28;19915;-76
2022/08/28 01:51:40;;;;;;;;;;;15.90;99.90;;;;;;5074366;28;19912;-76
2022/08/28 01:54:06;;;;;;;;;;;15.70;99.90;;;;;;5074164;28;19909;-76
2022/08/28 01:56:32;;;;;;;;;;;15.70;99.90;;;;;;5074900;28;20356;-76
2022/08/28 01:58:59;;;;;;;;;;;15.70;99.90;;;;;;5072922;28;19919;-76
2022/08/28 02:01:24;;;;;;;;;;;15.90;99.90;;;;;;5069531;28;19999;-75
2022/08/28 02:03:51;;;;;;;;;;;15.90;99.90;;;;;;5071851;28;20520;-76
2022/08/28 02:06:17;;;;;;;;;;;15.90;99.90;;;;;;5071922;28;20393;-76
2022/08/28 02:08:43;;;;;;;;;;;15.80;99.90;;;;;;5074052;28;19908;-76
2022/08/28 02:11:09;;;;;;;;;;;15.70;99.90;;;;;;5074099;28;19917;-76
2022/08/28 02:13:36;;;;;;;;;;;15.80;99.90;;;;;;5073782;28;19916;-76
2022/08/28 02:16:02;;;;;;;;;;;15.80;99.90;;;;;;5072729;28;19908;-76
2022/08/28 02:18:28;;;;;;;;;;;15.80;99.90;;;;;;5073857;28;20025;-76
2022/08/28 02:20:53;;;;;;;;;;;15.90;99.90;;;;;;5073823;28;20350;-76
2022/08/28 02:23:19;;;;;;;;;;;15.90;99.90;;;;;;5073507;28;19919;-76
2022/08/28 02:25:44;;;;;;;;;;;15.80;99.90;;;;;;5073790;28;20266;-76
2022/08/28 02:28:10;;;;;;;;;;;15.90;99.90;;;;;;5073845;28;20389;-76
2022/08/28 02:30:35;;;;;;;;;;;15.80;99.90;;;;;;5073706;28;19912;-76
2022/08/28 02:33:01;;;;;;;;;;;15.80;99.90;;;;;;5073574;28;20357;-76
2022/08/28 02:35:27;;;;;;;;;;;15.90;99.90;;;;;;5066563;28;19909;-76
2022/08/28 02:37:52;;;;;;;;;;;15.80;99.90;;;;;;5073291;28;20361;-76
2022/08/28 02:40:20;;;;;;;;;;;15.70;99.90;;;;;;5073380;28;19951;-76
2022/08/28 02:42:45;;;;;;;;;;;15.70;99.90;;;;;;5073044;28;19915;-76
2022/08/28 02:45:12;;;;;;;;;;;15.70;99.90;;;;;;5073525;28;19909;-76
2022/08/28 02:47:38;;;;;;;;;;;15.70;99.90;;;;;;5073540;28;20354;-75
2022/08/28 02:50:06;;;;;;;;;;;15.60;99.90;;;;;;5072464;28;19908;-76
2022/08/28 02:52:32;;;;;;;;;;;15.60;99.90;;;;;;5073285;28;19915;-76
2022/08/28 02:54:57;;;;;;;;;;;15.70;99.90;;;;;;5072872;28;20398;-76
2022/08/28 02:57:23;;;;;;;;;;;15.80;99.90;;;;;;5073317;28;20408;-75
2022/08/28 02:59:48;;;;;;;;;;;15.80;99.90;;;;;;5073281;28;19908;-75
2022/08/28 03:02:13;;;;;;;;;;;15.80;99.90;;;;;;5073058;28;19954;-76
2022/08/28 03:04:40;;;;;;;;;;;15.80;99.90;;;;;;5070377;28;19920;-76
2022/08/28 03:07:12;;;;;;;;;;;15.80;99.90;;;;;;5072772;28;19908;-75
2022/08/28 03:09:40;;;;;;;;;;;15.90;99.90;;;;;;5065144;28;19912;-76
2022/08/28 03:12:06;;;;;;;;;;;15.90;99.90;;;;;;5072881;28;19992;-76
2022/08/28 03:14:32;;;;;;;;;;;15.90;99.90;;;;;;5072709;28;19954;-76
2022/08/28 03:16:58;;;;;;;;;;;15.90;99.90;;;;;;5066461;28;19962;-76
2022/08/28 03:19:24;;;;;;;;;;;16.00;99.90;;;;;;5072662;28;19931;-76
2022/08/28 03:21:49;;;;;;;;;;;16.00;99.90;;;;;;5072552;28;20354;-76
2022/08/28 03:24:15;;;;;;;;;;;16.00;99.90;;;;;;5072648;28;19962;-76
2022/08/28 03:26:40;;;;;;;;;;;16.10;99.90;;;;;;5072769;28;19909;-76
2022/08/28 03:29:06;;;;;;;;;;;16.10;99.90;;;;;;5072546;28;20030;-76
2022/08/28 03:31:32;;;;;;;;;;;16.10;99.90;;;;;;5071064;28;20293;-76
2022/08/28 03:33:58;;;;;;;;;;;16.10;99.90;;;;;;5068430;28;19909;-76
2022/08/28 03:36:25;;;;;;;;;;;16.10;99.90;;;;;;5075763;28;20015;-75
2022/08/28 03:38:52;;;;;;;;;;;16.10;99.90;;;;;;5073750;28;20002;-76
2022/08/28 03:41:18;;;;;;;;;;;16.10;99.90;;;;;;5072084;28;19916;-76
2022/08/28 03:43:44;;;;;;;;;;;16.10;99.90;;;;;;5071634;28;19912;-76
2022/08/28 03:46:15;;;;;;;;;;;16.10;99.90;;;;;;5070978;28;19948;-76
2022/08/28 03:48:40;;;;;;;;;;;16.10;99.90;;;;;;5070860;28;19919;-76
2022/08/28 03:51:07;;;;;;;;;;;16.10;99.90;;;;;;5072458;28;19909;-76
2022/08/28 03:53:33;;;;;;;;;;;16.10;99.90;;;;;;5070282;28;19912;-76
2022/08/28 03:55:58;;;;;;;;;;;16.10;99.90;;;;;;5071803;28;19909;-76
2022/08/28 03:58:25;;;;;;;;;;;16.10;99.90;;;;;;5070602;28;19909;-76
2022/08/28 04:00:50;;;;;;;;;;;16.10;99.90;;;;;;5071472;28;19913;-76
2022/08/28 04:03:16;;;;;;;;;;;16.10;99.90;;;;;;5071336;28;20551;-76
2022/08/28 04:05:42;;;;;;;;;;;16.10;99.90;;;;;;5065289;28;19991;-76
2022/08/28 04:08:09;;;;;;;;;;;16.10;99.90;;;;;;5071475;28;19990;-75
2022/08/28 04:10:35;;;;;;;;;;;16.10;99.90;;;;;;5071961;28;20364;-76
2022/08/28 04:13:02;;;;;;;;;;;16.10;99.90;;;;;;5071856;28;19963;-76
2022/08/28 04:15:28;;;;;;;;;;;16.10;99.90;;;;;;5071916;28;19919;-76
2022/08/28 04:17:53;;;;;;;;;;;16.10;99.90;;;;;;5071037;28;20364;-76
2022/08/28 04:20:19;;;;;;;;;;;16.10;99.90;;;;;;5067608;28;20002;-76
2022/08/28 04:22:48;;;;;;;;;;;16.10;99.90;;;;;;5071476;28;20351;-76
2022/08/28 04:25:13;;;;;;;;;;;16.10;99.90;;;;;;5071444;28;19908;-76
2022/08/28 04:27:39;;;;;;;;;;;16.00;99.90;;;;;;5071868;28;20006;-76
2022/08/28 04:30:05;;;;;;;;;;;16.10;99.90;;;;;;5071735;28;20421;-76
2022/08/28 04:32:32;;;;;;;;;;;16.10;99.90;;;;;;5071927;28;19948;-76
2022/08/28 04:34:58;;;;;;;;;;;16.10;99.90;;;;;;5064059;28;20370;-76
2022/08/28 04:37:23;;;;;;;;;;;16.10;99.90;;;;;;5072978;28;19961;-76
2022/08/28 04:39:49;;;;;;;;;;;16.10;99.90;;;;;;5071522;28;20031;-76
2022/08/28 04:42:14;;;;;;;;;;;16.10;99.90;;;;;;5071329;28;19908;-76
2022/08/28 04:44:40;;;;;;;;;;;16.10;99.90;;;;;;5071266;28;19917;-76
2022/08/28 04:47:06;;;;;;;;;;;16.20;99.90;;;;;;5071446;28;20366;-75
2022/08/28 04:49:32;;;;;;;;;;;16.20;99.90;;;;;;5071157;28;19916;-76
2022/08/28 04:51:58;;;;;;;;;;;16.20;99.90;;;;;;5071271;28;20332;-76
2022/08/28 04:54:23;;;;;;;;;;;16.20;99.90;;;;;;5063314;28;19908;-76
2022/08/28 04:56:49;;;;;;;;;;;16.20;99.90;;;;;;5071481;28;19909;-76
2022/08/28 04:59:15;;;;;;;;;;;16.20;99.90;;;;;;5071202;28;19912;-76
2022/08/28 05:01:41;;;;;;;;;;;16.20;99.90;;;;;;5071852;28;20297;-75
2022/08/28 05:04:07;;;;;;;;;;;16.20;99.90;;;;;;5070964;28;20369;-76
2022/08/28 05:06:33;;;;;;;;;;;16.20;99.90;;;;;;5070974;28;19966;-76
2022/08/28 05:08:59;;;;;;;;;;;16.20;99.90;;;;;;5071211;28;20277;-75
2022/08/28 05:11:26;;;;;;;;;;;16.20;99.90;;;;;;5070856;28;19938;-76
2022/08/28 05:13:52;;;;;;;;;;;16.20;99.90;;;;;;5074466;28;19939;-75
2022/08/28 05:16:19;;;;;;;;;;;16.20;99.90;;;;;;5072322;28;20400;-78
2022/08/28 05:18:44;;;;;;;;;;;16.30;99.90;;;;;;5070707;28;20183;-77
2022/08/28 05:21:14;;;;;;;;;;;16.30;99.90;;;;;;5057122;28;19920;-77
2022/08/28 05:23:40;;;;;;;;;;;16.40;99.90;;;;;;5061686;28;19919;-79
2022/08/28 05:26:09;;;;;;;;;;;16.50;99.90;;;;;;5063893;28;19908;-77
2022/08/28 05:28:34;;;;;;;;;;;16.50;99.90;;;;;;5069774;28;19963;-78
2022/08/28 05:31:10;;;;;;;;;;;16.50;99.90;;;;;;5062528;28;19920;-78
2022/08/28 05:33:36;;;;;;;;;;;16.60;99.90;;;;;;5074167;28;19982;-78
2022/08/28 05:36:04;;;;;;;;;;;16.70;99.90;;;;;;5064023;28;20259;-78
2022/08/28 05:38:29;;;;;;;;;;;16.70;99.90;;;;;;5074275;28;19908;-78
2022/08/28 05:40:55;;;;;;;;;;;16.70;99.90;;;;;;5075004;28;20011;-78
2022/08/28 05:43:20;;;;;;;;;;;16.80;99.90;;;;;;5075164;28;19939;-78
2022/08/28 05:45:56;;;;;;;;;;;16.80;99.90;;;;;;5075458;28;19908;-76
2022/08/28 05:48:22;;;;;;;;;;;16.80;99.90;;;;;;5074398;28;19954;-78
2022/08/28 05:50:47;;;;;;;;;;;16.80;99.90;;;;;;5075420;28;19912;-78
2022/08/28 05:53:13;;;;;;;;;;;16.80;99.90;;;;;;5075094;28;20354;-77
2022/08/28 05:55:39;;;;;;;;;;;16.90;99.90;;;;;;5074804;28;19912;-77
2022/08/28 05:58:27;;;;;;;;;;;17.00;99.90;;;;;;5073220;28;19995;-78
2022/08/28 06:00:50;;;;;;;;;;;17.00;99.90;;;;;;5074558;28;19908;-76
2022/08/28 06:03:16;;;;;;;;;;;17.00;99.90;;;;;;5074083;28;19935;-76
2022/08/28 06:05:41;;;;;;;;;;;17.10;99.90;;;;;;5073854;28;20353;-76
2022/08/28 06:08:07;;;;;;;;;;;17.10;99.90;;;;;;5075163;28;19916;-76
2022/08/28 06:10:35;;;;;;;;;;;17.10;99.90;;;;;;5075456;28;20288;-75
2022/08/28 06:13:02;;;;;;;;;;;17.20;99.90;;;;;;5068118;28;19908;-75
2022/08/28 06:15:27;;;;;;;;;;;17.10;99.90;;;;;;5075234;28;19915;-76
2022/08/28 06:17:53;;;;;;;;;;;17.20;99.90;;;;;;5075359;28;19913;-76
2022/08/28 06:20:18;;;;;;;;;;;17.30;99.90;;;;;;5072851;28;19916;-75
2022/08/28 06:22:44;;;;;;;;;;;17.20;99.90;;;;;;5074791;28;19954;-76
2022/08/28 06:25:13;;;;;;;;;;;17.30;99.90;;;;;;5072932;28;19965;-75
2022/08/28 06:27:38;;;;;;;;;;;17.40;99.90;;;;;;5072796;28;19931;-76
2022/08/28 06:30:04;;;;;;;;;;;17.50;99.90;;;;;;5073066;28;20369;-75
2022/08/28 06:32:30;;;;;;;;;;;17.60;99.90;;;;;;5072651;28;19916;-75
2022/08/28 06:34:55;;;;;;;;;;;17.60;99.90;;;;;;5068896;28;20174;-77
2022/08/28 06:37:21;;;;;;;;;;;17.70;99.90;;;;;;5078374;28;19909;-75
2022/08/28 06:39:46;;;;;;;;;;;17.80;99.90;;;;;;5074447;28;19915;-76
2022/08/28 06:42:12;;;;;;;;;;;17.80;99.90;;;;;;5072441;28;20477;-76
2022/08/28 06:44:37;;;;;;;;;;;17.80;99.90;;;;;;5073504;28;19913;-76
2022/08/28 06:47:03;;;;;;;;;;;17.70;99.90;;;;;;5074165;28;20301;-77
2022/08/28 06:49:28;;;;;;;;;;;17.80;99.90;;;;;;5074154;28;19912;-77
2022/08/28 06:51:55;;;;;;;;;;;17.80;99.90;;;;;;5073462;28;20277;-76
2022/08/28 06:54:21;;;;;;;;;;;17.80;99.90;;;;;;5072814;28;19912;-76
2022/08/28 06:56:47;;;;;;;;;;;17.90;99.90;;;;;;5073367;28;19958;-76
2022/08/28 06:59:12;;;;;;;;;;;17.90;99.90;;;;;;5073494;28;19912;-76
2022/08/28 07:01:38;;;;;;;;;;;18.00;99.90;;;;;;5073644;28;19913;-76
2022/08/28 07:04:08;;;;;;;;;;;18.10;99.90;;;;;;5069169;28;19917;-77
2022/08/28 07:06:35;;;;;;;;;;;18.20;99.90;;;;;;5071134;28;19909;-77
2022/08/28 07:09:01;;;;;;;;;;;18.20;99.90;;;;;;5072485;28;20571;-76
2022/08/28 07:11:28;;;;;;;;;;;18.30;99.90;;;;;;5072463;28;19961;-76
2022/08/28 07:13:54;;;;;;;;;;;18.30;99.90;;;;;;5066738;28;19916;-78
2022/08/28 07:16:21;;;;;;;;;;;18.20;99.90;;;;;;5073581;28;20318;-76
2022/08/28 07:18:47;;;;;;;;;;;18.30;99.90;;;;;;5072511;28;19908;-77
2022/08/28 07:21:12;;;;;;;;;;;18.40;99.90;;;;;;5073453;28;20035;-75
2022/08/28 07:23:39;;;;;;;;;;;18.40;99.90;;;;;;5071361;28;19912;-75
2022/08/28 07:26:06;;;;;;;;;;;18.40;99.90;;;;;;5072565;28;19912;-76
2022/08/28 07:28:32;;;;;;;;;;;18.50;99.90;;;;;;5072503;28;19912;-76
2022/08/28 07:30:58;;;;;;;;;;;18.70;99.90;;;;;;5070186;28;20111;-76
2022/08/28 07:33:24;;;;;;;;;;;18.70;99.90;;;;;;5072815;28;19915;-76
2022/08/28 07:35:49;;;;;;;;;;;18.70;99.90;;;;;;5072541;28;19908;-75
2022/08/28 07:38:15;;;;;;;;;;;18.90;99.90;;;;;;5071906;28;19908;-76
2022/08/28 07:40:41;;;;;;;;;;;19.10;99.90;;;;;;5073506;28;19992;-76
2022/08/28 07:46:00;;;;;;;;;;;19.00;99.90;;;;;;5073144;28;19987;-77
2022/08/28 07:48:26;;;;;;;;;;;18.80;99.90;;;;;;5071897;28;19909;-76
2022/08/28 07:50:51;;;;;;;;;;;18.90;99.90;;;;;;5073489;28;19915;-76
2022/08/28 07:53:17;;;;;;;;;;;19.00;99.90;;;;;;5071551;28;19909;-77
2022/08/28 07:55:42;;;;;;;;;;;18.90;99.90;;;;;;5072740;28;19963;-77
2022/08/28 07:58:08;;;;;;;;;;;19.10;99.90;;;;;;5072846;28;19912;-75
2022/08/28 08:00:33;;;;;;;;;;;19.10;99.90;;;;;;5078952;28;20282;-76
2022/08/28 08:02:59;;;;;;;;;;;19.10;99.90;;;;;;5072807;28;19917;-76
2022/08/28 08:05:24;;;;;;;;;;;19.00;99.90;;;;;;5071007;28;19908;-76
2022/08/28 08:07:51;;;;;;;;;;;18.90;99.90;;;;;;5072719;28;19962;-76
2022/08/28 08:10:17;;;;;;;;;;;18.80;99.90;;;;;;5072515;28;19928;-77
2022/08/28 08:12:43;;;;;;;;;;;18.80;99.90;;;;;;5072640;28;20003;-77
2022/08/28 08:15:09;;;;;;;;;;;18.90;99.90;;;;;;5069594;28;19935;-77
2022/08/28 08:17:38;;;;;;;;;;;19.10;99.90;;;;;;5057809;28;20138;-77
2022/08/28 08:20:04;;;;;;;;;;;19.30;99.90;;;;;;5066672;28;19908;-76
2022/08/28 08:22:29;;;;;;;;;;;19.30;99.90;;;;;;5072029;28;20045;-75
2022/08/28 08:24:55;;;;;;;;;;;19.20;99.90;;;;;;5071108;28;19934;-75
2022/08/28 08:27:21;;;;;;;;;;;19.10;99.90;;;;;;5071082;28;19912;-76
2022/08/28 08:29:47;;;;;;;;;;;19.10;99.90;;;;;;5074996;28;19913;-74
2022/08/28 08:32:14;;;;;;;;;;;18.90;99.90;;;;;;5070345;28;20012;-76
2022/08/28 08:34:44;;;;;;;;;;;18.90;99.90;;;;;;5072748;28;19909;-77
2022/08/28 08:37:12;;;;;;;;;;;18.90;99.90;;;;;;5066236;28;19956;-77
2022/08/28 08:39:38;;;;;;;;;;;18.90;99.90;;;;;;5072043;28;19912;-77
2022/08/28 08:42:06;;;;;;;;;;;18.90;99.90;;;;;;5071865;28;20065;-76
2022/08/28 08:44:42;;;;;;;;;;;18.90;99.90;;;;;;5071721;28;19917;-77
2022/08/28 08:47:31;;;;;;;;;;;19.10;99.90;;;;;;5070354;28;20270;-77
2022/08/28 08:49:59;;;;;;;;;;;19.40;99.90;;;;;;5071727;28;19908;-75
2022/08/28 08:52:43;;;;;;;;;;;19.60;99.90;;;;;;5072621;28;19909;-76
2022/08/28 08:55:23;;;;;;;;;;;19.50;99.90;;;;;;5065883;28;19915;-77
2022/08/28 08:57:55;;;;;;;;;;;19.40;99.90;;;;;;5059816;28;20343;-76
2022/08/28 09:00:21;;;;;;;;;;;19.40;99.90;;;;;;5062420;28;19916;-76
2022/08/28 09:02:59;;;;;;;;;;;19.70;99.90;;;;;;5061539;28;20035;-76
2022/08/28 09:05:36;;;;;;;;;;;19.70;99.90;;;;;;5060014;28;20397;-77
2022/08/28 09:08:02;;;;;;;;;;;19.70;99.90;;;;;;5054267;28;19912;-77
2022/08/28 09:10:34;;;;;;;;;;;19.80;99.90;;;;;;5060152;28;20047;-77
2022/08/28 09:13:20;;;;;;;;;;;20.10;99.90;;;;;;5054006;28;19913;-76
2022/08/28 09:15:45;;;;;;;;;;;20.50;99.90;;;;;;5056003;28;19909;-75
2022/08/28 09:18:13;;;;;;;;;;;20.70;99.90;;;;;;5071189;28;19923;-76
2022/08/28 09:20:39;;;;;;;;;;;20.80;99.90;;;;;;5066010;28;20447;-76
2022/08/28 09:23:05;;;;;;;;;;;20.60;99.90;;;;;;5056826;28;19912;-77
2022/08/28 09:25:43;;;;;;;;;;;20.50;99.90;;;;;;5064206;28;19962;-77
2022/08/28 09:28:09;;;;;;;;;;;20.50;99.90;;;;;;5062483;28;19912;-77
2022/08/28 09:30:35;;;;;;;;;;;20.50;99.90;;;;;;5055798;28;20400;-77
2022/08/28 09:33:00;;;;;;;;;;;20.80;99.90;;;;;;5060382;28;19956;-77
2022/08/28 09:35:28;;;;;;;;;;;20.80;99.90;;;;;;5062500;28;19966;-77
2022/08/28 09:37:54;;;;;;;;;;;20.90;99.90;;;;;;5055510;28;19909;-77
2022/08/28 09:40:22;;;;;;;;;;;21.00;99.90;;;;;;5055801;28;19909;-75
2022/08/28 09:45:50;;;;;;;;;;;21.20;99.90;;;;;;5055259;28;20063;-76
2022/08/28 09:48:23;;;;;;;;;;;21.00;99.90;;;;;;5053683;28;19945;-76
2022/08/28 09:50:57;;;;;;;;;;;20.90;99.90;;;;;;5051910;28;19909;-76
2022/08/28 09:53:24;;;;;;;;;;;21.00;99.90;;;;;;5061390;28;20001;-76
2022/08/28 09:55:59;;;;;;;;;;;20.80;99.90;;;;;;5070494;28;19990;-76
2022/08/28 09:58:35;;;;;;;;;;;20.80;99.90;;;;;;5070651;28;19962;-76
2022/08/28 10:01:09;;;;;;;;;;;20.80;99.90;;;;;;5075839;28;19912;-76
2022/08/28 10:03:40;;;;;;;;;;;20.90;99.90;;;;;;5074032;28;19931;-76
2022/08/28 10:06:17;;;;;;;;;;;21.00;99.90;;;;;;5066773;28;20320;-76
2022/08/28 10:08:59;;;;;;;;;;;24.40;99.90;;;;;;5061284;28;19952;-76
2022/08/28 10:11:40;;;;;;;;;;;24.80;99.90;;;;;;5057799;28;20011;-76
2022/08/28 10:14:29;;;;;;;;;;;24.60;99.90;;;;;;5058408;28;19909;-76
2022/08/28 10:17:05;;;;;;;;;;;24.60;99.90;;;;;;5066438;28;20284;-76
2022/08/28 10:19:37;;;;;;;;;;;26.00;99.90;;;;;;5067617;28;19999;-76
2022/08/28 10:22:21;;;;;;;;;;;28.80;96.60;;;;;;5061100;28;19921;-76
2022/08/28 10:24:53;;;;;;;;;;;29.00;92.10;;;;;;5055114;28;20886;-76
2022/08/28 10:27:21;;;;;;;;;;;28.30;94.80;;;;;;5064081;28;20284;-76
2022/08/28 10:30:13;;;;;;;;;;;26.60;95.60;;;;;;5073674;28;19916;-76
2022/08/28 10:33:04;;;;;;;;;;;26.30;99.40;;;;;;5059605;28;20324;-75
2022/08/28 10:35:48;;;;;;;;;;;27.10;97.90;;;;;;5070581;28;20385;-76
2022/08/28 10:38:15;;;;;;;;;;;27.70;94.60;;;;;;5074753;28;20381;-76
2022/08/28 10:40:46;;;;;;;;;;;28.10;92.10;;;;;;5073561;28;19934;-76
2022/08/28 10:43:18;;;;;;;;;;;29.10;90.70;;;;;;5066482;28;19912;-76
2022/08/28 10:45:43;;;;;;;;;;;29.20;91.60;;;;;;5073444;28;19908;-76
2022/08/28 10:48:35;;;;;;;;;;;29.60;85.90;;;;;;5073228;28;19913;-76
2022/08/28 10:51:03;;;;;;;;;;;27.80;89.30;;;;;;5070206;28;20381;-76
2022/08/28 10:53:36;;;;;;;;;;;29.40;86.90;;;;;;5071480;28;20357;-76
2022/08/28 10:56:04;;;;;;;;;;;28.80;83.40;;;;;;5074933;28;20301;-76
2022/08/28 10:58:31;;;;;;;;;;;25.90;93.70;;;;;;5071047;28;19909;-77
2022/08/28 11:01:01;;;;;;;;;;;24.60;99.60;;;;;;5063756;28;20007;-77
2022/08/28 11:03:28;;;;;;;;;;;26.60;95.60;;;;;;5072645;28;19920;-76
2022/08/28 11:05:56;;;;;;;;;;;24.70;99.90;;;;;;5071571;28;19908;-76
2022/08/28 11:08:25;;;;;;;;;;;23.30;99.90;;;;;;5072447;28;19908;-76
2022/08/28 11:10:51;;;;;;;;;;;23.50;99.90;;;;;;5071493;28;19924;-76
2022/08/28 11:13:35;;;;;;;;;;;23.80;99.90;;;;;;5071942;28;20369;-76
2022/08/28 11:16:09;;;;;;;;;;;23.90;99.90;;;;;;5066604;28;19919;-76
2022/08/28 11:18:57;;;;;;;;;;;24.20;99.90;;;;;;5072556;28;19956;-76
2022/08/28 11:21:25;;;;;;;;;;;23.60;99.90;;;;;;5043181;28;19913;-76
2022/08/28 11:23:56;;;;;;;;;;;23.20;99.90;;;;;;5072055;28;20090;-76
2022/08/28 11:26:25;;;;;;;;;;;23.20;99.90;;;;;;5072349;28;19913;-76
2022/08/28 11:28:50;;;;;;;;;;;22.70;99.90;;;;;;5068004;28;19982;-76
2022/08/28 11:31:16;;;;;;;;;;;22.60;99.90;;;;;;5058017;28;19909;-78
2022/08/28 11:33:49;;;;;;;;;;;22.60;99.90;;;;;;5059022;28;19912;-78
2022/08/28 11:36:18;;;;;;;;;;;22.70;99.90;;;;;;5067617;28;20000;-78
2022/08/28 11:38:43;;;;;;;;;;;22.70;99.90;;;;;;5070074;28;19912;-77
2022/08/28 11:41:16;;;;;;;;;;;22.80;99.90;;;;;;5068984;28;20217;-78
2022/08/28 11:43:43;;;;;;;;;;;22.70;99.90;;;;;;5070537;28;20011;-77
2022/08/28 11:46:11;;;;;;;;;;;23.10;99.90;;;;;;5072027;28;19954;-78
2022/08/28 11:48:38;;;;;;;;;;;23.50;99.90;;;;;;5072023;28;19915;-77
2022/08/28 11:51:16;;;;;;;;;;;23.60;99.90;;;;;;5071781;28;19914;-78
2022/08/28 11:54:01;;;;;;;;;;;23.90;99.90;;;;;;5066652;28;19982;-77
2022/08/28 11:56:26;;;;;;;;;;;23.80;99.90;;;;;;5066781;28;19996;-77
2022/08/28 11:59:15;;;;;;;;;;;24.50;99.50;;;;;;5065029;28;19948;-77
2022/08/28 12:01:41;;;;;;;;;;;27.30;92.10;;;;;;5047671;28;20051;-78
2022/08/28 12:04:16;;;;;;;;;;;29.40;80.90;;;;;;5071371;28;20408;-78
2022/08/28 12:06:51;;;;;;;;;;;29.10;77.70;;;;;;5066836;28;20376;-77
2022/08/28 12:09:25;;;;;;;;;;;29.40;74.20;;;;;;5065956;28;19913;-78
2022/08/28 12:12:09;;;;;;;;;;;30.30;73.80;;;;;;5071563;28;19916;-78
2022/08/28 12:14:34;;;;;;;;;;;30.10;72.80;;;;;;5071655;28;19962;-78
2022/08/28 12:17:00;;;;;;;;;;;28.70;72.30;;;;;;5063149;28;20292;-77
2022/08/28 12:19:27;;;;;;;;;;;27.30;81.60;;;;;;5071923;28;19940;-77
2022/08/28 12:21:53;;;;;;;;;;;26.40;88.40;;;;;;5071735;28;19919;-78
2022/08/28 12:24:21;;;;;;;;;;;25.40;90.50;;;;;;5071285;28;20362;-77
2022/08/28 12:26:50;;;;;;;;;;;25.30;92.20;;;;;;5071804;28;19909;-77
2022/08/28 12:29:48;;;;;;;;;;;25.30;93.50;;;;;;5070949;28;19908;-77
2022/08/28 12:32:31;;;;;;;;;;;24.90;92.80;;;;;;5066415;28;19908;-77
2022/08/28 12:34:57;;;;;;;;;;;25.30;92.60;;;;;;5068177;28;20362;-78
2022/08/28 12:37:22;;;;;;;;;;;24.70;94.30;;;;;;5071349;28;20015;-77
2022/08/28 12:39:48;;;;;;;;;;;24.50;95.00;;;;;;5071492;28;19932;-77
2022/08/28 12:42:16;;;;;;;;;;;24.20;96.50;;;;;;5071323;28;19909;-78
2022/08/28 12:44:41;;;;;;;;;;;24.20;96.60;;;;;;5071028;28;20037;-77
2022/08/28 12:47:07;;;;;;;;;;;24.40;97.50;;;;;;5071467;28;19913;-78
2022/08/28 12:49:33;;;;;;;;;;;24.40;95.50;;;;;;5071455;28;19963;-77
2022/08/28 12:52:06;;;;;;;;;;;24.00;94.20;;;;;;5071226;28;19920;-77
2022/08/28 12:54:32;;;;;;;;;;;23.70;95.60;;;;;;5071516;28;19909;-77
2022/08/28 12:56:57;;;;;;;;;;;24.00;95.10;;;;;;5071297;28;19916;-79
2022/08/28 12:59:24;;;;;;;;;;;24.30;95.00;;;;;;5069371;28;20003;-78
2022/08/28 13:01:50;;;;;;;;;;;24.40;95.10;;;;;;5075746;28;20381;-78
2022/08/28 13:04:29;;;;;;;;;;;25.10;95.60;;;;;;5070906;28;19956;-77
2022/08/28 13:07:05;;;;;;;;;;;25.30;94.80;;;;;;5070504;28;19915;-77
2022/08/28 13:09:30;;;;;;;;;;;24.90;94.20;;;;;;5071124;28;20281;-77
2022/08/28 13:11:56;;;;;;;;;;;24.30;93.90;;;;;;5071030;28;19920;-77
2022/08/28 13:14:41;;;;;;;;;;;24.20;94.60;;;;;;5070922;28;19908;-77
2022/08/28 13:17:07;;;;;;;;;;;24.20;95.20;;;;;;5064825;28;19923;-77
2022/08/28 13:19:33;;;;;;;;;;;24.30;93.30;;;;;;5071001;28;19909;-77
2022/08/28 13:22:19;;;;;;;;;;;24.40;92.90;;;;;;5070924;28;19909;-77
2022/08/28 13:24:45;;;;;;;;;;;24.70;93.90;;;;;;5070474;28;19919;-77
2022/08/28 13:27:11;;;;;;;;;;;24.30;94.60;;;;;;5069745;28;19913;-76
2022/08/28 13:29:39;;;;;;;;;;;24.20;95.00;;;;;;5071037;28;20285;-77
2022/08/28 13:32:06;;;;;;;;;;;24.50;95.80;;;;;;5070905;28;19916;-77
2022/08/28 13:34:36;;;;;;;;;;;24.40;95.20;;;;;;5071043;28;19909;-77
2022/08/28 13:37:05;;;;;;;;;;;24.70;94.00;;;;;;5073550;28;19965;-76
2022/08/28 13:39:32;;;;;;;;;;;24.40;94.30;;;;;;5071920;28;19922;-77
2022/08/28 13:42:00;;;;;;;;;;;24.10;94.10;;;;;;5073077;28;19909;-77
2022/08/28 13:44:32;;;;;;;;;;;24.00;95.50;;;;;;5074434;28;19919;-77
2022/08/28 13:46:58;;;;;;;;;;;24.20;94.40;;;;;;5074970;28;19934;-77
2022/08/28 13:49:26;;;;;;;;;;;24.50;95.60;;;;;;5074567;28;19912;-77
2022/08/28 13:51:52;;;;;;;;;;;24.20;92.00;;;;;;5074546;28;19955;-77
2022/08/28 13:54:18;;;;;;;;;;;24.30;93.50;;;;;;5074421;28;19931;-77
2022/08/28 13:56:43;;;;;;;;;;;24.10;91.00;;;;;;5074608;28;20361;-77
2022/08/28 13:59:09;;;;;;;;;;;24.30;91.80;;;;;;5074427;28;19952;-78
2022/08/28 14:04:18;;;;;;;;;;;24.80;93.60;;;;;;5074369;28;19966;-77
2022/08/28 14:06:44;;;;;;;;;;;25.20;92.40;;;;;;5074326;28;19913;-77
2022/08/28 14:09:14;;;;;;;;;;;24.90;92.00;;;;;;5072675;28;19913;-77
2022/08/28 14:11:42;;;;;;;;;;;24.10;93.50;;;;;;5073923;28;19920;-77
2022/08/28 14:14:08;;;;;;;;;;;24.00;94.10;;;;;;5073856;28;19931;-77
2022/08/28 14:16:34;;;;;;;;;;;24.20;93.60;;;;;;5074090;28;20365;-78
2022/08/28 14:19:03;;;;;;;;;;;27.00;85.50;;;;;;5073902;28;19909;-77
2022/08/28 14:21:29;;;;;;;;;;;28.70;76.40;;;;;;5073911;28;19943;-77
2022/08/28 14:23:55;;;;;;;;;;;29.80;73.20;;;;;;5073485;28;20334;-77
2022/08/28 14:26:20;;;;;;;;;;;29.10;74.80;;;;;;5073996;28;19913;-77
2022/08/28 14:28:46;;;;;;;;;;;29.10;77.80;;;;;;5072443;28;19908;-78
2022/08/28 14:31:12;;;;;;;;;;;29.90;72.60;;;;;;5073765;28;19927;-78